createdAt,value
2023-01-29T00:01:10.725Z,21.65
2023-01-29T00:03:37.585Z,21.80
2023-01-29T00:06:04.621Z,21.72
2023-01-29T00:08:31.361Z,21.79
2023-01-29T00:10:58.091Z,21.85
2023-01-29T00:13:24.821Z,21.91
2023-01-29T00:15:51.570Z,21.94
2023-01-29T00:18:18.309Z,21.91
2023-01-29T00:20:45.081Z,22.01
2023-01-29T00:23:11.832Z,20.78
2023-01-29T00:25:39.370Z,18.06
2023-01-29T00:28:06.097Z,17.49
2023-01-29T00:30:32.872Z,19.80
2023-01-29T00:32:59.627Z,20.30
2023-01-29T00:35:26.372Z,20.71
2023-01-29T00:37:53.180Z,20.81
2023-01-29T00:40:19.975Z,20.89
2023-01-29T00:43:05.486Z,21.10
2023-01-29T00:45:32.330Z,21.27
2023-01-29T00:47:59.088Z,21.35
2023-01-29T00:50:25.874Z,21.36
2023-01-29T00:52:54.528Z,21.42
2023-01-29T00:55:21.365Z,21.63
2023-01-29T00:57:48.319Z,21.75
2023-01-29T01:00:15.395Z,21.78
2023-01-29T01:03:01.284Z,21.73
2023-01-29T01:05:28.160Z,21.72
2023-01-29T01:07:54.906Z,21.87
2023-01-29T01:10:21.739Z,21.89
2023-01-29T01:12:48.559Z,21.86
2023-01-29T01:15:15.328Z,21.95
2023-01-29T01:17:42.097Z,22.10
2023-01-29T01:20:08.830Z,22.11
2023-01-29T01:22:35.901Z,21.75
2023-01-29T01:25:02.730Z,18.82
2023-01-29T01:27:29.646Z,17.20
2023-01-29T01:29:56.387Z,19.28
2023-01-29T01:32:23.150Z,20.22
2023-01-29T01:34:49.872Z,20.62
2023-01-29T01:37:16.599Z,20.82
2023-01-29T01:39:43.347Z,20.94
2023-01-29T01:42:10.077Z,21.13
2023-01-29T01:44:36.804Z,21.24
2023-01-29T01:47:03.548Z,21.29
2023-01-29T01:49:31.217Z,21.41
2023-01-29T01:51:58.189Z,21.58
2023-01-29T01:54:24.942Z,21.60
2023-01-29T01:56:52.425Z,21.66
2023-01-29T01:59:19.179Z,21.68
2023-01-29T02:01:51.081Z,22.01
2023-01-29T02:04:36.429Z,21.94
2023-01-29T02:07:21.742Z,21.93
2023-01-29T02:09:48.948Z,21.94
2023-01-29T02:12:15.715Z,21.92
2023-01-29T02:14:42.471Z,22.07
2023-01-29T02:17:09.209Z,22.10
2023-01-29T02:19:35.949Z,20.17
2023-01-29T02:22:03.414Z,18.19
2023-01-29T02:24:30.225Z,18.72
2023-01-29T02:26:56.983Z,19.85
2023-01-29T02:29:25.111Z,20.54
2023-01-29T02:31:51.938Z,20.86
2023-01-29T02:34:18.770Z,20.98
2023-01-29T02:36:45.654Z,21.10
2023-01-29T02:39:12.390Z,21.20
2023-01-29T02:41:39.133Z,21.35
2023-01-29T02:44:05.925Z,21.36
2023-01-29T02:46:32.657Z,21.65
2023-01-29T02:49:00.036Z,21.57
2023-01-29T02:51:26.797Z,21.62
2023-01-29T02:53:53.547Z,21.71
2023-01-29T02:56:20.294Z,21.75
2023-01-29T02:58:47.049Z,21.94
2023-01-29T03:01:13.839Z,21.88
2023-01-29T03:03:40.598Z,22.04
2023-01-29T03:06:07.476Z,21.96
2023-01-29T03:08:37.247Z,22.07
2023-01-29T03:11:04.147Z,21.95
2023-01-29T03:13:30.879Z,19.78
2023-01-29T03:16:01.441Z,18.05
2023-01-29T03:18:30.545Z,19.22
2023-01-29T03:20:58.375Z,20.21
2023-01-29T03:23:26.942Z,20.59
2023-01-29T03:26:12.625Z,20.86
2023-01-29T03:28:57.976Z,21.03
2023-01-29T03:31:43.373Z,21.18
2023-01-29T03:34:16.323Z,21.24
2023-01-29T03:36:45.811Z,21.44
2023-01-29T03:39:12.544Z,21.47
2023-01-29T03:41:39.288Z,21.54
2023-01-29T03:44:06.075Z,21.55
2023-01-29T03:46:32.802Z,21.74
2023-01-29T03:48:59.533Z,21.76
2023-01-29T03:51:26.280Z,21.81
2023-01-29T03:53:53.098Z,21.85
2023-01-29T03:56:19.882Z,21.83
2023-01-29T03:58:46.646Z,21.90
2023-01-29T04:01:13.438Z,22.00
2023-01-29T04:03:40.202Z,22.08
2023-01-29T04:06:09.552Z,22.18
2023-01-29T04:08:36.514Z,20.54
2023-01-29T04:11:03.561Z,18.71
2023-01-29T04:13:30.317Z,18.23
2023-01-29T04:15:57.074Z,19.75
2023-01-29T04:18:24.032Z,20.57
2023-01-29T04:20:50.795Z,20.90
2023-01-29T04:23:17.524Z,21.03
2023-01-29T04:25:44.341Z,21.16
2023-01-29T04:28:11.285Z,21.26
2023-01-29T04:30:38.048Z,21.41
2023-01-29T04:33:04.888Z,21.50
2023-01-29T04:35:31.770Z,21.47
2023-01-29T04:37:58.520Z,21.52
2023-01-29T04:40:26.583Z,21.72
2023-01-29T04:42:53.354Z,21.74
2023-01-29T04:45:20.103Z,21.79
2023-01-29T04:47:46.852Z,21.80
2023-01-29T04:50:13.841Z,21.83
2023-01-29T04:52:40.720Z,21.92
2023-01-29T04:55:07.453Z,21.87
2023-01-29T04:57:34.202Z,22.06
2023-01-29T05:00:00.948Z,22.10
2023-01-29T05:02:28.369Z,21.69
2023-01-29T05:04:55.325Z,19.03
2023-01-29T05:07:22.053Z,17.02
2023-01-29T05:09:48.789Z,19.08
2023-01-29T05:12:15.541Z,20.13
2023-01-29T05:14:42.341Z,20.53
2023-01-29T05:17:09.067Z,20.72
2023-01-29T05:19:35.814Z,21.06
2023-01-29T05:22:02.562Z,21.04
2023-01-29T05:24:29.353Z,21.20
2023-01-29T05:27:14.953Z,21.28
2023-01-29T05:29:41.688Z,21.41
2023-01-29T05:32:08.454Z,21.45
2023-01-29T05:34:35.219Z,21.55
2023-01-29T05:37:02.114Z,21.63
2023-01-29T05:39:28.875Z,21.65
2023-01-29T05:41:55.643Z,21.70
2023-01-29T05:44:22.391Z,21.89
2023-01-29T05:46:49.201Z,21.82
2023-01-29T05:49:15.964Z,21.92
2023-01-29T05:51:42.707Z,21.94
2023-01-29T05:54:09.444Z,22.03
2023-01-29T05:56:36.189Z,22.03
2023-01-29T05:59:02.927Z,21.51
2023-01-29T06:01:29.710Z,19.48
2023-01-29T06:03:56.468Z,18.61
2023-01-29T06:06:23.201Z,19.45
2023-01-29T06:08:50.015Z,20.30
2023-01-29T06:11:18.178Z,20.82
2023-01-29T06:13:44.953Z,20.99
2023-01-29T06:16:11.806Z,21.12
2023-01-29T06:18:38.610Z,21.39
2023-01-29T06:21:05.372Z,21.40
2023-01-29T06:23:32.109Z,21.51
2023-01-29T06:25:58.858Z,21.48
2023-01-29T06:28:25.624Z,21.56
2023-01-29T06:30:52.391Z,21.66
2023-01-29T06:33:19.151Z,21.70
2023-01-29T06:35:45.884Z,21.83
2023-01-29T06:38:12.614Z,21.92
2023-01-29T06:40:39.438Z,21.85
2023-01-29T06:43:06.170Z,22.00
2023-01-29T06:45:33.016Z,21.99
2023-01-29T06:48:01.395Z,22.01
2023-01-29T06:50:28.421Z,22.07
2023-01-29T06:52:55.157Z,20.55
2023-01-29T06:55:21.919Z,19.29
2023-01-29T06:57:48.649Z,19.15
2023-01-29T07:00:15.916Z,19.83
2023-01-29T07:02:42.802Z,20.46
2023-01-29T07:05:09.530Z,20.78
2023-01-29T07:07:36.966Z,21.03
2023-01-29T07:10:03.936Z,21.30
2023-01-29T07:12:30.658Z,21.24
2023-01-29T07:14:57.409Z,21.39
2023-01-29T07:17:24.166Z,21.54
2023-01-29T07:19:50.943Z,21.50
2023-01-29T07:22:17.723Z,21.61
2023-01-29T07:24:44.557Z,21.66
2023-01-29T07:27:11.276Z,21.69
2023-01-29T07:29:38.024Z,21.81
2023-01-29T07:32:04.784Z,21.81
2023-01-29T07:34:31.536Z,21.93
2023-01-29T07:36:58.269Z,21.94
2023-01-29T07:39:25.031Z,22.00
2023-01-29T07:41:51.774Z,22.05
2023-01-29T07:44:18.527Z,20.51
2023-01-29T07:46:45.310Z,18.65
2023-01-29T07:49:12.087Z,18.21
2023-01-29T07:51:38.817Z,19.57
2023-01-29T07:54:05.586Z,20.19
2023-01-29T07:56:32.334Z,20.67
2023-01-29T07:58:59.076Z,20.85
2023-01-29T08:01:25.840Z,21.04
2023-01-29T08:03:52.785Z,21.15
2023-01-29T08:06:19.541Z,21.32
2023-01-29T08:08:46.265Z,21.35
2023-01-29T08:11:13.057Z,21.51
2023-01-29T08:13:39.855Z,21.56
2023-01-29T08:16:06.668Z,21.56
2023-01-29T08:18:33.479Z,21.72
2023-01-29T08:21:00.635Z,21.76
2023-01-29T08:23:27.404Z,21.83
2023-01-29T08:25:54.183Z,21.93
2023-01-29T08:28:21.143Z,21.94
2023-01-29T08:30:47.935Z,22.00
2023-01-29T08:33:15.277Z,22.00
2023-01-29T08:35:43.014Z,22.06
2023-01-29T08:38:10.487Z,22.17
2023-01-29T08:40:37.229Z,20.78
2023-01-29T08:43:05.489Z,18.20
2023-01-29T08:45:32.985Z,17.91
2023-01-29T08:47:59.737Z,19.67
2023-01-29T08:50:26.591Z,20.33
2023-01-29T08:52:53.377Z,20.68
2023-01-29T08:55:20.119Z,21.03
2023-01-29T08:57:46.841Z,21.06
2023-01-29T09:00:13.638Z,21.29
2023-01-29T09:02:40.427Z,21.36
2023-01-29T09:05:07.196Z,21.36
2023-01-29T09:07:33.946Z,21.49
2023-01-29T09:10:00.679Z,21.52
2023-01-29T09:12:27.453Z,21.59
2023-01-29T09:14:54.220Z,21.69
2023-01-29T09:17:20.958Z,21.78
2023-01-29T09:19:47.710Z,21.87
2023-01-29T09:22:14.682Z,21.89
2023-01-29T09:24:41.410Z,21.93
2023-01-29T09:27:09.897Z,21.94
2023-01-29T09:29:36.668Z,21.90
2023-01-29T09:32:03.432Z,21.94
2023-01-29T09:34:30.176Z,20.47
2023-01-29T09:36:56.950Z,17.89
2023-01-29T09:39:23.702Z,17.68
2023-01-29T09:41:51.424Z,19.68
2023-01-29T09:44:18.193Z,20.48
2023-01-29T09:46:44.928Z,20.73
2023-01-29T09:49:11.669Z,20.88
2023-01-29T09:51:38.448Z,21.12
2023-01-29T09:54:05.194Z,21.17
2023-01-29T09:56:31.980Z,21.30
2023-01-29T09:59:01.284Z,21.30
2023-01-29T10:01:28.572Z,21.47
2023-01-29T10:03:55.807Z,21.49
2023-01-29T10:06:22.640Z,21.65
2023-01-29T10:08:49.523Z,21.74
2023-01-29T10:11:16.347Z,21.68
2023-01-29T10:13:43.087Z,21.73
2023-01-29T10:16:09.854Z,21.82
2023-01-29T10:18:36.601Z,21.88
2023-01-29T10:21:04.488Z,21.80
2023-01-29T10:23:33.405Z,21.91
2023-01-29T10:26:01.097Z,21.98
2023-01-29T10:28:27.835Z,21.98
2023-01-29T10:30:54.691Z,20.99
2023-01-29T10:33:21.506Z,18.08
2023-01-29T10:35:49.978Z,17.02
2023-01-29T10:38:16.768Z,19.33
2023-01-29T10:40:43.505Z,19.93
2023-01-29T10:43:10.249Z,20.36
2023-01-29T10:45:36.981Z,20.67
2023-01-29T10:48:04.972Z,20.89
2023-01-29T10:50:33.215Z,21.06
2023-01-29T10:52:59.965Z,21.11
2023-01-29T10:55:26.710Z,21.29
2023-01-29T10:57:53.536Z,21.36
2023-01-29T11:00:20.335Z,21.40
2023-01-29T11:02:48.187Z,21.53
2023-01-29T11:05:15.291Z,21.54
2023-01-29T11:07:42.194Z,21.71
2023-01-29T11:10:08.981Z,21.83
2023-01-29T11:12:36.963Z,21.73
2023-01-29T11:15:03.703Z,21.88
2023-01-29T11:17:30.470Z,21.91
2023-01-29T11:19:57.210Z,21.90
2023-01-29T11:22:23.950Z,21.91
2023-01-29T11:24:50.680Z,21.98
2023-01-29T11:27:17.548Z,22.05
2023-01-29T11:29:44.303Z,20.42
2023-01-29T11:32:11.048Z,18.19
2023-01-29T11:34:37.792Z,17.68
2023-01-29T11:37:04.828Z,19.69
2023-01-29T11:39:31.614Z,20.25
2023-01-29T11:41:58.798Z,20.88
2023-01-29T11:44:25.541Z,21.06
2023-01-29T11:46:52.319Z,21.09
2023-01-29T11:49:20.852Z,21.12
2023-01-29T11:51:48.235Z,21.21
2023-01-29T11:54:14.975Z,21.31
2023-01-29T11:56:41.747Z,21.41
2023-01-29T11:59:08.516Z,21.51
2023-01-29T12:01:36.127Z,21.52
2023-01-29T12:04:02.929Z,21.56
2023-01-29T12:06:29.839Z,21.59
2023-01-29T12:08:57.256Z,21.81
2023-01-29T12:11:24.029Z,21.89
2023-01-29T12:13:50.757Z,21.86
2023-01-29T12:16:18.088Z,21.90
2023-01-29T12:18:45.046Z,22.03
2023-01-29T12:21:11.778Z,21.98
2023-01-29T12:23:38.516Z,21.93
2023-01-29T12:26:05.320Z,20.74
2023-01-29T12:28:32.045Z,17.94
2023-01-29T12:30:59.202Z,17.78
2023-01-29T12:33:25.959Z,19.46
2023-01-29T12:35:53.300Z,20.12
2023-01-29T12:38:20.111Z,20.62
2023-01-29T12:40:46.890Z,20.80
2023-01-29T12:43:13.682Z,20.89
2023-01-29T12:45:40.420Z,21.19
2023-01-29T12:48:07.263Z,21.28
2023-01-29T12:50:34.013Z,21.38
2023-01-29T12:53:01.000Z,21.43
2023-01-29T12:55:27.775Z,21.60
2023-01-29T12:57:54.544Z,21.57
2023-01-29T13:00:21.337Z,21.71
2023-01-29T13:02:48.153Z,21.68
2023-01-29T13:05:14.957Z,21.79
2023-01-29T13:07:41.678Z,21.76
2023-01-29T13:10:08.514Z,21.79
2023-01-29T13:12:35.245Z,21.91
2023-01-29T13:15:01.998Z,21.98
2023-01-29T13:17:28.737Z,22.05
2023-01-29T13:19:55.478Z,22.10
2023-01-29T13:22:22.227Z,20.18
2023-01-29T13:24:58.725Z,17.85
2023-01-29T13:27:30.264Z,18.24
2023-01-29T13:29:57.028Z,19.65
2023-01-29T13:32:24.629Z,20.30
2023-01-29T13:34:51.440Z,20.65
2023-01-29T13:37:19.570Z,20.99
2023-01-29T13:39:46.308Z,21.07
2023-01-29T13:42:13.042Z,21.20
2023-01-29T13:44:39.955Z,21.23
2023-01-29T13:47:06.809Z,21.30
2023-01-29T13:49:33.627Z,21.48
2023-01-29T13:52:00.414Z,21.59
2023-01-29T13:54:27.462Z,21.61
2023-01-29T13:56:54.368Z,21.70
2023-01-29T13:59:21.120Z,21.71
2023-01-29T14:01:47.914Z,21.71
2023-01-29T14:04:14.643Z,21.74
2023-01-29T14:06:41.408Z,22.04
2023-01-29T14:09:08.150Z,21.91
2023-01-29T14:11:34.958Z,21.96
2023-01-29T14:14:01.707Z,22.02
2023-01-29T14:16:28.723Z,22.01
2023-01-29T14:18:55.559Z,20.15
2023-01-29T14:21:23.782Z,17.64
2023-01-29T14:23:50.567Z,17.87
2023-01-29T14:26:17.419Z,19.96
2023-01-29T14:28:44.248Z,20.46
2023-01-29T14:31:11.099Z,20.71
2023-01-29T14:33:37.954Z,20.95
2023-01-29T14:36:04.739Z,21.13
2023-01-29T14:38:31.483Z,21.20
2023-01-29T14:40:58.207Z,21.23
2023-01-29T14:43:24.950Z,21.37
2023-01-29T14:45:51.782Z,21.51
2023-01-29T14:48:18.546Z,21.53
2023-01-29T14:50:45.322Z,21.63
2023-01-29T14:53:12.067Z,21.68
2023-01-29T14:55:38.859Z,21.79
2023-01-29T14:58:05.622Z,21.76
2023-01-29T15:00:32.376Z,21.90
2023-01-29T15:03:02.306Z,21.88
2023-01-29T15:05:29.325Z,21.88
2023-01-29T15:07:56.136Z,21.94
2023-01-29T15:10:23.530Z,21.93
2023-01-29T15:12:50.470Z,19.54
2023-01-29T15:15:17.702Z,17.29
2023-01-29T15:17:44.763Z,18.39
2023-01-29T15:20:11.516Z,19.74
2023-01-29T15:22:38.260Z,20.16
2023-01-29T15:25:05.090Z,20.54
2023-01-29T15:27:31.836Z,20.75
2023-01-29T15:29:58.606Z,20.92
2023-01-29T15:32:29.525Z,20.98
2023-01-29T15:34:56.583Z,21.08
2023-01-29T15:37:23.315Z,21.31
2023-01-29T15:39:52.098Z,21.34
2023-01-29T15:42:25.530Z,21.39
2023-01-29T15:44:54.247Z,21.36
2023-01-29T15:47:21.022Z,21.62
2023-01-29T15:49:48.966Z,21.72
2023-01-29T15:52:15.711Z,21.81
2023-01-29T15:54:42.447Z,21.74
2023-01-29T15:57:09.189Z,21.88
2023-01-29T15:59:36.013Z,21.83
2023-01-29T16:02:02.747Z,21.90
2023-01-29T16:04:31.229Z,22.00
2023-01-29T16:06:57.973Z,22.10
2023-01-29T16:09:24.765Z,22.26
2023-01-29T16:11:51.693Z,20.92
2023-01-29T16:14:18.924Z,18.26
2023-01-29T16:16:45.782Z,17.42
2023-01-29T16:19:12.536Z,19.46
2023-01-29T16:21:39.276Z,20.22
2023-01-29T16:24:09.192Z,20.47
2023-01-29T16:26:36.001Z,20.80
2023-01-29T16:29:02.764Z,21.05
2023-01-29T16:31:29.691Z,21.13
2023-01-29T16:33:56.622Z,21.29
2023-01-29T16:36:23.440Z,21.43
2023-01-29T16:38:50.173Z,21.47
2023-01-29T16:41:16.983Z,21.46
2023-01-29T16:43:43.790Z,21.60
2023-01-29T16:46:10.565Z,21.55
2023-01-29T16:48:37.315Z,21.69
2023-01-29T16:51:04.070Z,21.77
2023-01-29T16:53:30.871Z,21.75
2023-01-29T16:55:57.765Z,21.83
2023-01-29T16:58:24.536Z,21.88
2023-01-29T17:00:51.311Z,22.02
2023-01-29T17:03:18.143Z,22.05
2023-01-29T17:05:44.875Z,22.15
2023-01-29T17:08:11.611Z,20.73
2023-01-29T17:10:38.354Z,17.76
2023-01-29T17:13:05.156Z,17.94
2023-01-29T17:15:31.937Z,19.86
2023-01-29T17:17:58.694Z,20.33
2023-01-29T17:20:26.948Z,20.65
2023-01-29T17:22:53.915Z,21.10
2023-01-29T17:25:21.317Z,21.10
2023-01-29T17:27:51.344Z,21.15
2023-01-29T17:30:18.158Z,21.32
2023-01-29T17:32:47.426Z,21.38
2023-01-29T17:35:14.524Z,21.50
2023-01-29T17:37:41.506Z,21.50
2023-01-29T17:40:08.267Z,21.64
2023-01-29T17:42:34.994Z,21.73
2023-01-29T17:45:01.857Z,21.77
2023-01-29T17:47:28.603Z,21.81
2023-01-29T17:49:55.353Z,21.88
2023-01-29T17:52:22.201Z,21.87
2023-01-29T17:54:48.966Z,21.96
2023-01-29T17:57:15.698Z,22.07
2023-01-29T17:59:43.870Z,22.08
2023-01-29T18:02:28.855Z,21.27
2023-01-29T18:04:56.729Z,17.91
2023-01-29T18:07:23.591Z,17.18
2023-01-29T18:09:50.400Z,19.66
2023-01-29T18:12:17.533Z,20.24
2023-01-29T18:14:44.362Z,20.60
2023-01-29T18:17:11.098Z,20.81
2023-01-29T18:19:37.833Z,20.95
2023-01-29T18:22:04.564Z,21.08
2023-01-29T18:24:31.416Z,21.26
2023-01-29T18:26:58.171Z,21.36
2023-01-29T18:29:29.829Z,21.50
2023-01-29T18:31:56.651Z,21.53
2023-01-29T18:34:23.428Z,21.60
2023-01-29T18:36:50.251Z,21.69
2023-01-29T18:39:16.998Z,21.71
2023-01-29T18:41:44.009Z,21.78
2023-01-29T18:44:10.774Z,21.84
2023-01-29T18:46:37.532Z,21.86
2023-01-29T18:49:05.054Z,21.97
2023-01-29T18:51:31.868Z,22.01
2023-01-29T18:53:58.603Z,22.00
2023-01-29T18:56:25.381Z,22.06
2023-01-29T18:58:52.767Z,20.68
2023-01-29T19:01:22.366Z,17.97
2023-01-29T19:03:49.146Z,17.52
2023-01-29T19:06:15.889Z,19.53
2023-01-29T19:08:43.766Z,20.22
2023-01-29T19:11:12.356Z,20.58
2023-01-29T19:13:40.351Z,20.92
2023-01-29T19:16:07.203Z,20.98
2023-01-29T19:18:33.943Z,21.22
2023-01-29T19:21:01.285Z,21.19
2023-01-29T19:23:28.036Z,21.41
2023-01-29T19:25:54.767Z,21.48
2023-01-29T19:28:21.782Z,21.52
2023-01-29T19:30:48.794Z,21.69
2023-01-29T19:33:15.636Z,21.69
2023-01-29T19:35:42.375Z,21.78
2023-01-29T19:38:09.110Z,21.76
2023-01-29T19:40:35.843Z,21.88
2023-01-29T19:43:02.630Z,21.90
2023-01-29T19:45:37.174Z,21.92
2023-01-29T19:48:20.162Z,21.94
2023-01-29T19:50:46.893Z,21.95
2023-01-29T19:53:13.624Z,19.31
2023-01-29T19:55:40.446Z,17.47
2023-01-29T19:58:07.183Z,18.68
2023-01-29T20:00:33.945Z,19.88
2023-01-29T20:03:00.715Z,20.36
2023-01-29T20:05:27.471Z,20.77
2023-01-29T20:07:54.244Z,20.98
2023-01-29T20:10:21.180Z,21.19
2023-01-29T20:12:48.004Z,21.28
2023-01-29T20:15:14.774Z,21.32
2023-01-29T20:17:41.517Z,21.40
2023-01-29T20:20:08.494Z,21.59
2023-01-29T20:22:35.273Z,21.61
2023-01-29T20:25:02.151Z,21.73
2023-01-29T20:27:28.917Z,21.82
2023-01-29T20:29:55.716Z,21.85
2023-01-29T20:32:22.560Z,21.90
2023-01-29T20:34:52.102Z,21.94
2023-01-29T20:37:19.419Z,21.95
2023-01-29T20:39:46.250Z,22.00
2023-01-29T20:42:12.993Z,21.99
2023-01-29T20:44:39.733Z,21.98
2023-01-29T20:47:06.495Z,18.65
2023-01-29T20:49:33.241Z,17.63
2023-01-29T20:52:00.014Z,18.85
2023-01-29T20:54:26.830Z,20.00
2023-01-29T20:56:53.969Z,20.61
2023-01-29T20:59:20.778Z,20.70
2023-01-29T21:01:47.564Z,20.89
2023-01-29T21:04:14.306Z,21.08
2023-01-29T21:06:41.051Z,21.22
2023-01-29T21:09:07.825Z,21.41
2023-01-29T21:11:34.552Z,21.44
2023-01-29T21:14:01.774Z,21.51
2023-01-29T21:16:28.600Z,21.58
2023-01-29T21:18:55.582Z,21.67
2023-01-29T21:21:22.457Z,21.65
2023-01-29T21:23:49.322Z,21.66
2023-01-29T21:26:16.094Z,21.80
2023-01-29T21:28:42.869Z,21.89
2023-01-29T21:31:09.988Z,21.93
2023-01-29T21:33:36.876Z,21.92
2023-01-29T21:36:03.674Z,21.94
2023-01-29T21:38:30.415Z,22.07
2023-01-29T21:40:57.157Z,21.66
2023-01-29T21:43:23.914Z,18.50
2023-01-29T21:45:51.542Z,17.51
2023-01-29T21:48:18.298Z,19.67
2023-01-29T21:50:45.050Z,20.33
2023-01-29T21:53:11.810Z,20.60
2023-01-29T21:55:38.555Z,20.91
2023-01-29T21:58:05.295Z,21.09
2023-01-29T22:00:32.172Z,21.24
2023-01-29T22:02:58.956Z,21.25
2023-01-29T22:05:26.496Z,21.40
2023-01-29T22:07:53.323Z,21.45
2023-01-29T22:10:20.751Z,21.53
2023-01-29T22:12:47.797Z,21.72
2023-01-29T22:15:14.566Z,21.74
2023-01-29T22:17:41.459Z,21.73
2023-01-29T22:20:08.304Z,21.81
2023-01-29T22:22:35.061Z,21.89
2023-01-29T22:25:01.851Z,21.88
2023-01-29T22:27:28.590Z,21.87
2023-01-29T22:29:55.345Z,22.04
2023-01-29T22:32:22.099Z,22.15
2023-01-29T22:34:48.873Z,21.98
2023-01-29T22:37:15.634Z,19.79
2023-01-29T22:39:42.390Z,17.76
2023-01-29T22:42:09.159Z,18.86
2023-01-29T22:44:36.004Z,19.24
2023-01-29T22:47:02.753Z,19.65
2023-01-29T22:49:29.924Z,20.51
2023-01-29T22:52:12.094Z,20.71
2023-01-29T22:54:38.851Z,21.10
2023-01-29T22:57:05.674Z,21.05
2023-01-29T22:59:32.437Z,21.17
2023-01-29T23:01:59.206Z,21.29
2023-01-29T23:04:25.984Z,21.43
2023-01-29T23:06:52.771Z,21.47
2023-01-29T23:09:19.542Z,21.64
2023-01-29T23:11:46.311Z,21.77
2023-01-29T23:14:13.059Z,21.67
2023-01-29T23:16:39.795Z,21.70
2023-01-29T23:19:06.543Z,21.78
2023-01-29T23:21:33.301Z,21.87
2023-01-29T23:24:01.045Z,22.04
2023-01-29T23:26:46.667Z,22.04
2023-01-29T23:29:13.442Z,22.03
2023-01-29T23:31:40.279Z,21.98
2023-01-29T23:34:07.053Z,22.07
2023-01-29T23:36:33.845Z,22.05
2023-01-29T23:39:00.586Z,19.54
2023-01-29T23:41:27.351Z,17.64
2023-01-29T23:43:54.169Z,18.61
2023-01-29T23:46:21.030Z,19.96
2023-01-29T23:48:47.818Z,20.49
2023-01-29T23:51:14.598Z,20.84
2023-01-29T23:53:41.321Z,21.08
2023-01-29T23:56:08.111Z,21.22
2023-01-29T23:58:34.910Z,21.30
